createdAt,value
2023-02-20T00:01:56.327Z,81.90
2023-02-20T00:07:16.907Z,82.00
2023-02-20T00:12:37.615Z,82.22
2023-02-20T00:17:58.266Z,82.12
2023-02-20T00:23:19.703Z,81.81
2023-02-20T00:28:42.177Z,81.72
2023-02-20T00:34:03.573Z,81.79
2023-02-20T00:47:49.771Z,82.32
2023-02-20T00:53:10.301Z,82.38
2023-02-20T00:58:31.354Z,82.43
2023-02-20T01:03:52.209Z,82.58
2023-02-20T01:09:13.477Z,82.65
2023-02-20T01:14:35.772Z,82.82
2023-02-20T01:19:56.341Z,83.25
2023-02-20T01:25:17.354Z,83.75
2023-02-20T01:30:38.429Z,83.76
2023-02-20T01:35:59.220Z,84.05
2023-02-20T01:41:20.162Z,84.11
2023-02-20T01:46:44.345Z,84.05
2023-02-20T01:52:15.113Z,84.20
2023-02-20T01:57:38.629Z,84.12
2023-02-20T02:03:05.045Z,84.03
2023-02-20T02:08:28.478Z,83.90
2023-02-20T02:13:50.070Z,83.82
2023-02-20T02:19:25.939Z,83.71
2023-02-20T02:25:24.545Z,83.84
2023-02-20T02:31:09.887Z,83.10
2023-02-20T02:36:47.505Z,82.33
2023-02-20T02:42:20.245Z,83.04
2023-02-20T02:47:55.042Z,83.20
2023-02-20T02:53:17.851Z,83.34
2023-02-20T02:58:38.386Z,83.29
2023-02-20T03:04:01.585Z,83.49
2023-02-20T03:09:28.946Z,83.32
2023-02-20T03:15:30.966Z,83.59
2023-02-20T03:20:55.557Z,83.38
2023-02-20T03:26:22.385Z,83.52
2023-02-20T03:32:12.102Z,83.60
2023-02-20T03:37:54.482Z,83.58
2023-02-20T03:43:28.521Z,83.67
2023-02-20T03:48:58.662Z,83.74
2023-02-20T03:54:20.638Z,83.73
2023-02-20T03:59:47.708Z,83.69
2023-02-20T04:05:14.291Z,83.67
2023-02-20T04:10:47.784Z,83.73
2023-02-20T04:16:09.300Z,83.73
2023-02-20T04:21:41.566Z,83.87
2023-02-20T04:27:04.280Z,83.73
2023-02-20T04:32:28.523Z,83.64
2023-02-20T04:37:50.119Z,83.74
2023-02-20T04:43:11.235Z,83.77
2023-02-20T04:48:31.442Z,83.86
2023-02-20T04:53:53.201Z,84.04
2023-02-20T05:07:11.209Z,84.10
2023-02-20T05:12:31.780Z,84.05
2023-02-20T05:17:52.684Z,84.16
2023-02-20T05:23:13.499Z,84.37
2023-02-20T05:28:34.149Z,84.58
2023-02-20T05:33:54.929Z,84.63
2023-02-20T05:39:16.161Z,84.55
2023-02-20T05:44:37.703Z,84.48
2023-02-20T05:49:58.035Z,84.55
2023-02-20T05:55:18.832Z,84.77
2023-02-20T06:00:39.698Z,84.68
2023-02-20T06:06:00.223Z,84.77
2023-02-20T06:11:20.458Z,85.06
2023-02-20T06:16:41.144Z,84.89
2023-02-20T06:22:01.971Z,85.01
2023-02-20T06:27:22.389Z,85.13
2023-02-20T06:32:42.967Z,85.11
2023-02-20T06:38:03.611Z,85.28
2023-02-20T06:43:23.826Z,85.27
2023-02-20T06:48:49.884Z,85.37
2023-02-20T06:54:12.871Z,85.27
2023-02-20T06:59:39.752Z,85.51
2023-02-20T07:05:00.196Z,85.05
2023-02-20T07:10:20.719Z,85.41
2023-02-20T07:15:40.971Z,85.31
2023-02-20T07:21:01.916Z,85.36
2023-02-20T07:26:28.735Z,85.35
2023-02-20T07:31:49.377Z,85.45
2023-02-20T07:37:09.710Z,85.58
2023-02-20T07:42:29.993Z,85.24
2023-02-20T07:48:00.951Z,85.56
2023-02-20T07:53:21.890Z,85.60
2023-02-20T07:58:42.477Z,85.43
2023-02-20T08:04:03.830Z,85.34
2023-02-20T08:09:24.651Z,85.32
2023-02-20T08:14:45.413Z,85.40
2023-02-20T08:20:19.349Z,85.30
2023-02-20T08:25:41.830Z,84.98
2023-02-20T08:31:03.544Z,84.93
2023-02-20T08:36:26.181Z,85.05
2023-02-20T08:41:47.816Z,84.80
2023-02-20T08:47:12.378Z,84.93
2023-02-20T08:52:33.695Z,84.90
2023-02-20T08:57:58.192Z,84.62
2023-02-20T09:03:19.879Z,84.75
2023-02-20T09:08:40.564Z,84.42
2023-02-20T09:14:02.229Z,84.22
2023-02-20T09:19:26.341Z,83.91
2023-02-20T09:24:50.259Z,83.91
2023-02-20T09:30:26.625Z,83.87
2023-02-20T09:35:49.358Z,83.62
2023-02-20T09:41:25.998Z,83.32
2023-02-20T09:46:50.636Z,82.73
2023-02-20T09:52:15.158Z,82.42
2023-02-20T09:57:37.840Z,82.34
2023-02-20T10:03:24.762Z,82.63
2023-02-20T10:08:48.514Z,82.44
2023-02-20T10:14:19.245Z,82.82
2023-02-20T10:20:00.384Z,82.85
2023-02-20T10:25:30.654Z,82.71
2023-02-20T10:31:01.390Z,82.42
2023-02-20T10:36:42.838Z,81.64
2023-02-20T10:42:27.516Z,81.80
2023-02-20T10:48:02.446Z,81.85
2023-02-20T10:53:47.371Z,81.50
2023-02-20T10:59:11.071Z,81.34
2023-02-20T11:04:39.563Z,81.55
2023-02-20T11:10:00.005Z,81.45
2023-02-20T11:15:32.626Z,80.90
2023-02-20T11:20:55.600Z,81.04
2023-02-20T11:26:27.429Z,80.89
2023-02-20T11:31:48.184Z,81.28
2023-02-20T11:37:14.466Z,81.05
2023-02-20T11:42:36.338Z,81.14
2023-02-20T11:48:20.486Z,81.59
2023-02-20T11:53:41.401Z,81.31
2023-02-20T11:59:27.933Z,81.82
2023-02-20T12:05:12.306Z,81.72
2023-02-20T12:10:46.751Z,81.59
2023-02-20T12:16:31.049Z,82.03
2023-02-20T12:22:19.925Z,81.95
2023-02-20T12:27:51.978Z,82.27
2023-02-20T12:33:38.624Z,82.09
2023-02-20T12:39:26.065Z,82.27
2023-02-20T12:45:03.063Z,82.41
2023-02-20T12:50:48.446Z,82.89
2023-02-20T12:56:30.452Z,82.52
2023-02-20T13:01:53.444Z,82.84
2023-02-20T13:07:21.320Z,82.80
2023-02-20T13:12:42.635Z,83.18
2023-02-20T13:18:32.719Z,83.70
2023-02-20T13:24:26.307Z,83.61
2023-02-20T13:29:58.855Z,83.12
2023-02-20T13:35:56.033Z,83.38
2023-02-20T13:41:16.474Z,83.43
2023-02-20T13:47:26.959Z,83.52
2023-02-20T13:52:49.352Z,83.36
2023-02-20T13:58:15.700Z,83.27
2023-02-20T14:03:36.456Z,83.19
2023-02-20T14:09:27.550Z,83.50
2023-02-20T14:14:48.610Z,83.77
2023-02-20T14:20:19.969Z,84.36
2023-02-20T14:25:49.227Z,84.13
2023-02-20T14:31:30.946Z,84.42
2023-02-20T14:37:15.214Z,84.30
2023-02-20T14:42:39.445Z,84.49
2023-02-20T14:48:01.287Z,84.51
2023-02-20T14:53:21.787Z,84.33
2023-02-20T14:58:43.576Z,84.02
2023-02-20T15:04:26.330Z,84.49
2023-02-20T15:09:49.833Z,84.31
2023-02-20T15:15:13.736Z,84.51
2023-02-20T15:20:34.904Z,84.78
2023-02-20T15:25:55.847Z,84.28
2023-02-20T15:31:23.395Z,84.62
2023-02-20T15:36:44.571Z,84.90
2023-02-20T15:42:10.742Z,84.89
2023-02-20T15:47:31.341Z,84.99
2023-02-20T15:52:51.955Z,85.21
2023-02-20T15:58:44.692Z,85.31
2023-02-20T16:04:16.057Z,85.21
2023-02-20T16:09:36.696Z,85.08
2023-02-20T16:14:57.854Z,85.17
2023-02-20T16:20:21.847Z,85.38
2023-02-20T16:25:42.401Z,85.55
2023-02-20T16:31:02.901Z,85.37
2023-02-20T16:36:25.279Z,85.38
2023-02-20T16:41:46.020Z,85.57
2023-02-20T16:47:10.200Z,85.80
2023-02-20T16:52:39.339Z,86.07
2023-02-20T16:58:00.766Z,85.92
2023-02-20T17:03:23.701Z,86.09
2023-02-20T17:08:43.942Z,86.07
2023-02-20T17:14:04.541Z,86.22
2023-02-20T17:19:25.269Z,86.17
2023-02-20T17:24:46.003Z,86.28
2023-02-20T17:30:08.105Z,86.10
2023-02-20T17:35:29.018Z,86.06
2023-02-20T17:40:49.332Z,86.08
2023-02-20T17:46:10.190Z,86.02
2023-02-20T17:51:30.887Z,85.93
2023-02-20T17:56:52.401Z,85.79
2023-02-20T18:02:14.817Z,85.62
2023-02-20T18:07:35.494Z,85.61
2023-02-20T18:13:05.502Z,85.51
2023-02-20T18:18:26.396Z,85.43
2023-02-20T18:23:47.295Z,85.31
2023-02-20T18:29:08.205Z,85.20
2023-02-20T18:34:31.267Z,85.21
2023-02-20T18:39:52.117Z,85.16
2023-02-20T18:45:13.047Z,84.88
2023-02-20T18:50:34.138Z,84.72
2023-02-20T18:55:54.674Z,84.68
2023-02-20T19:01:22.585Z,84.48
2023-02-20T19:06:47.226Z,84.31
2023-02-20T19:12:08.113Z,84.37
2023-02-20T19:17:28.579Z,84.30
2023-02-20T19:22:49.425Z,84.14
2023-02-20T19:28:11.468Z,84.23
2023-02-20T19:33:32.379Z,84.16
2023-02-20T19:38:53.161Z,84.29
2023-02-20T19:44:17.876Z,84.31
2023-02-20T19:49:45.968Z,84.03
2023-02-20T19:55:07.186Z,84.02
2023-02-20T20:00:30.767Z,84.01
2023-02-20T20:05:51.565Z,83.95
2023-02-20T20:11:12.411Z,84.00
2023-02-20T20:16:35.211Z,83.95
2023-02-20T20:21:55.965Z,84.21
2023-02-20T20:27:20.615Z,84.48
2023-02-20T20:32:41.341Z,84.41
2023-02-20T20:38:03.178Z,84.39
2023-02-20T20:43:23.596Z,84.70
2023-02-20T20:48:45.500Z,84.87
2023-02-20T20:54:07.384Z,85.04
2023-02-20T20:59:28.728Z,84.81
2023-02-20T21:04:52.889Z,85.13
2023-02-20T21:10:16.448Z,85.19
2023-02-20T21:15:37.391Z,85.73
2023-02-20T21:20:58.028Z,85.70
2023-02-20T21:26:18.489Z,85.29
2023-02-20T21:31:47.221Z,85.70
2023-02-20T21:37:08.186Z,85.53
2023-02-20T21:42:47.495Z,85.91
2023-02-20T21:48:08.322Z,85.98
2023-02-20T21:53:33.732Z,85.68
2023-02-20T21:59:05.046Z,86.04
2023-02-20T22:04:29.192Z,85.90
2023-02-20T22:10:08.195Z,85.89
2023-02-20T22:15:49.645Z,86.00
2023-02-20T22:21:36.123Z,86.02
2023-02-20T22:27:15.577Z,86.15
2023-02-20T22:32:55.838Z,86.04
2023-02-20T22:38:34.912Z,86.23
2023-02-20T22:44:14.075Z,86.52
2023-02-20T22:49:53.407Z,86.38
2023-02-20T22:55:32.475Z,86.33
2023-02-20T23:01:11.601Z,86.31
2023-02-20T23:06:50.462Z,86.59
2023-02-20T23:12:31.461Z,86.20
2023-02-20T23:18:10.428Z,86.14
2023-02-20T23:23:49.259Z,86.19
2023-02-20T23:29:28.302Z,86.18
2023-02-20T23:35:07.484Z,86.26
2023-02-20T23:40:46.672Z,86.26
2023-02-20T23:46:25.794Z,86.42
2023-02-20T23:52:14.784Z,86.23
2023-02-20T23:57:56.376Z,86.32
